EPZG/IEG METAR and TAF weather

Enter ICAO airport designator
Station Type Date Time Source
EPZG METAR 2019/02/23 02:30 UTC NOAA

EPZG 230230Z 11001KT CAVOK M07/M08 Q1046


Station Type Date Time Source
EPZG Decoded METAR 2019/02/23 02:30 UTC NOAA

Zielona Gora, Poland (EPZG) 51-56N 015-32E 192M
Feb 22, 2019 - 09:30 PM EST / 2019.02.23 0230 UTC
Wind: from the ESE (110 degrees) at 1 MPH (1 KT):0
Visibility: greater than 7 mile(s):0
Temperature: 19 F (-7 C)
Dew Point: 17 F (-8 C)
Relative Humidity: 92%
Pressure (altimeter): 30.89 in. Hg (1046 hPa)
ob: EPZG 230230Z 11001KT CAVOK M07/M08 Q1046
cycle: 2

Station Type Date Time Source
EPZG TAF 2012/06/28 21:49 UTC NOAA

TAF EPZG 282000Z 2821/2906 VRB02KT CAVOK
TEMPO 2823/2904 5000 BR PROB30 2900/2904 1500 BR BKN005


Example: see airport list